Time;durP1;ratioP1;P1;durP2;ratioP2;P2;SDS_P1;SDS_P2;PMS_P1;PMS_P2;Temp;Humidity;BMP_temperature;BMP_pressure;BME280_temperature;BME280_humidity;BME280_pressure;Samples;Min_cycle;Max_cycle;Signal;HPM_P1;HPM_P2
2024/01/10 00:00:15;;;;;;;45.35;18.80;;;;;;;-14.03;100.00;99936.25;6107760;19;20327;-71
2024/01/10 00:02:15;;;;;;;53.85;18.77;;;;;;;-13.93;100.00;99938.66;6108173;19;20010;-71
2024/01/10 00:04:16;;;;;;;44.08;16.92;;;;;;;-13.92;100.00;99942.94;6107773;19;19991;-70
2024/01/10 00:06:16;;;;;;;40.80;18.45;;;;;;;-13.95;100.00;99935.34;6108944;19;20006;-71
2024/01/10 00:08:17;;;;;;;46.05;18.90;;;;;;;-13.94;100.00;99932.50;6107418;19;20014;-71
2024/01/10 00:10:17;;;;;;;45.17;20.77;;;;;;;-14.06;100.00;99931.31;6108988;19;20030;-71
2024/01/10 00:12:18;;;;;;;41.83;17.70;;;;;;;-14.23;100.00;99925.38;6109001;19;20332;-70
2024/01/10 00:14:18;;;;;;;47.13;19.10;;;;;;;-14.22;100.00;99935.00;6107698;19;20459;-71
2024/01/10 00:16:18;;;;;;;43.47;17.70;;;;;;;-14.18;100.00;99930.94;6109054;19;20077;-70
2024/01/10 00:18:19;;;;;;;46.97;18.23;;;;;;;-14.07;100.00;99932.31;6109015;19;20005;-71
2024/01/10 00:20:19;;;;;;;46.17;19.60;;;;;;;-14.00;100.00;99932.41;6109198;19;20459;-71
2024/01/10 00:22:19;;;;;;;51.22;18.88;;;;;;;-13.99;100.00;99926.88;6109293;19;20002;-71
2024/01/10 00:24:19;;;;;;;45.42;18.55;;;;;;;-14.05;100.00;99925.00;6109004;19;20003;-71
2024/01/10 00:26:20;;;;;;;42.35;17.67;;;;;;;-14.06;100.00;99920.69;6107469;19;20032;-70
2024/01/10 00:28:20;;;;;;;43.05;18.95;;;;;;;-14.04;100.00;99915.19;6108140;19;20023;-71
2024/01/10 00:30:21;;;;;;;42.13;19.35;;;;;;;-14.04;100.00;99908.03;6108291;19;20029;-71
2024/01/10 00:32:21;;;;;;;40.95;17.58;;;;;;;-14.06;100.00;99909.22;6107347;19;20037;-71
2024/01/10 00:34:22;;;;;;;39.90;16.50;;;;;;;-14.06;100.00;99910.03;6107475;19;20439;-71
2024/01/10 00:36:22;;;;;;;38.72;17.42;;;;;;;-14.01;100.00;99912.13;6108632;19;20010;-71
2024/01/10 00:38:22;;;;;;;36.00;17.50;;;;;;;-13.95;100.00;99911.41;6107472;19;20026;-71
2024/01/10 00:40:23;;;;;;;44.72;19.17;;;;;;;-14.00;100.00;99903.97;6108115;19;20023;-71
2024/01/10 00:42:23;;;;;;;37.35;16.75;;;;;;;-13.87;100.00;99900.66;6108512;19;20366;-71
2024/01/10 00:44:23;;;;;;;46.25;20.45;;;;;;;-13.91;100.00;99904.69;6108139;19;20010;-71
2024/01/10 00:46:24;;;;;;;46.40;19.83;;;;;;;-13.87;100.00;99905.97;6108521;19;20006;-71
2024/01/10 00:48:24;;;;;;;43.22;17.45;;;;;;;-13.85;100.00;99917.25;6107370;19;19994;-71
2024/01/10 00:50:25;;;;;;;44.35;17.30;;;;;;;-13.94;100.00;99905.91;6107917;19;20015;-71
2024/01/10 00:52:25;;;;;;;43.70;19.65;;;;;;;-13.94;100.00;99910.41;6108367;19;20006;-70
2024/01/10 00:54:25;;;;;;;44.28;18.33;;;;;;;-14.05;100.00;99903.72;6104323;19;20648;-70
2024/01/10 00:56:26;;;;;;;41.30;16.13;;;;;;;-14.04;100.00;99905.34;6109492;19;20041;-71
2024/01/10 00:58:26;;;;;;;42.20;17.45;;;;;;;-14.08;100.00;99903.25;6108204;19;20006;-71
2024/01/10 01:00:26;;;;;;;38.33;16.63;;;;;;;-14.08;100.00;99912.03;6107824;19;20006;-70
2024/01/10 01:02:27;;;;;;;36.65;17.85;;;;;;;-14.13;100.00;99905.66;6108878;19;20010;-70
2024/01/10 01:04:27;;;;;;;43.08;16.27;;;;;;;-14.19;100.00;99905.34;6106968;19;20006;-71
2024/01/10 01:06:27;;;;;;;43.05;17.92;;;;;;;-14.27;100.00;99909.94;6107984;19;20013;-71
2024/01/10 01:08:28;;;;;;;43.75;15.32;;;;;;;-14.36;100.00;99919.84;6107828;19;20007;-71
2024/01/10 01:10:28;;;;;;;34.38;16.15;;;;;;;-14.38;100.00;99915.72;6107883;19;20031;-70
2024/01/10 01:12:28;;;;;;;38.63;16.40;;;;;;;-14.49;100.00;99912.50;6108447;19;20119;-71
2024/01/10 01:14:29;;;;;;;35.80;15.75;;;;;;;-14.61;100.00;99910.50;6105964;19;20027;-71
2024/01/10 01:16:29;;;;;;;43.38;16.60;;;;;;;-14.70;100.00;99916.91;6108773;19;20041;-71
2024/01/10 01:18:29;;;;;;;37.58;17.52;;;;;;;-14.70;100.00;99917.72;6108251;19;20505;-71
2024/01/10 01:20:30;;;;;;;35.28;17.00;;;;;;;-14.66;100.00;99912.84;6107786;19;20074;-70
2024/01/10 01:22:31;;;;;;;39.03;15.27;;;;;;;-14.74;100.00;99911.09;6108409;19;20066;-70
2024/01/10 01:24:32;;;;;;;36.03;15.27;;;;;;;-14.82;100.00;99900.53;6105822;19;20390;-71
2024/01/10 01:26:32;;;;;;;33.45;14.57;;;;;;;-14.93;100.00;99903.63;6107917;19;20020;-70
2024/01/10 01:28:32;;;;;;;39.25;15.63;;;;;;;-14.76;100.00;99900.66;6106960;19;20387;-71
2024/01/10 01:30:33;;;;;;;45.55;17.10;;;;;;;-14.73;100.00;99904.78;6108098;19;20006;-71
2024/01/10 01:32:33;;;;;;;41.15;16.70;;;;;;;-14.76;100.00;99900.66;6107265;19;19995;-70
2024/01/10 01:34:33;;;;;;;34.35;14.63;;;;;;;-14.82;100.00;99905.84;6106149;19;20331;-70
2024/01/10 01:36:34;;;;;;;41.70;17.63;;;;;;;-14.90;100.00;99903.28;6107463;19;20467;-70
2024/01/10 01:38:35;;;;;;;47.80;15.93;;;;;;;-14.94;100.00;99897.50;6107071;19;20477;-70
2024/01/10 01:40:35;;;;;;;39.70;16.37;;;;;;;-14.96;100.00;99901.34;6106931;19;19995;-70
2024/01/10 01:42:35;;;;;;;45.45;16.08;;;;;;;-14.95;100.00;99900.34;6108077;19;20222;-70
2024/01/10 01:44:36;;;;;;;33.55;15.40;;;;;;;-14.99;100.00;99893.72;6105484;19;20018;-70
2024/01/10 01:46:37;;;;;;;41.42;16.55;;;;;;;-15.04;100.00;99888.97;6107763;19;20574;-70
2024/01/10 01:48:37;;;;;;;48.97;18.45;;;;;;;-14.98;100.00;99892.72;6107128;19;20002;-70
2024/01/10 01:50:38;;;;;;;33.05;16.00;;;;;;;-14.99;100.00;99889.22;6107452;19;20086;-70
2024/01/10 01:52:38;;;;;;;47.17;19.38;;;;;;;-14.88;100.00;99888.00;6105936;19;20021;-70
2024/01/10 01:54:39;;;;;;;42.65;19.10;;;;;;;-14.94;100.00;99876.25;6106061;19;20121;-70
2024/01/10 01:56:42;;;;;;;52.70;18.23;;;;;;;-14.87;100.00;99874.53;6106146;19;20002;-70
2024/01/10 01:58:42;;;;;;;;;;;;;;;-14.86;100.00;99876.19;6107852;19;19999;-70
2024/01/10 02:00:43;;;;;;;47.63;16.55;;;;;;;-14.80;100.00;99877.31;6106195;19;19930;-70
2024/01/10 02:02:44;;;;;;;39.75;16.35;;;;;;;-14.75;100.00;99873.06;6107331;19;20443;-70
2024/01/10 02:04:46;;;;;;;40.42;16.63;;;;;;;-14.72;100.00;99879.06;6107065;19;20094;-70
2024/01/10 02:06:46;;;;;;;;;;;;;;;-14.68;100.00;99875.00;6112215;19;20038;-70
2024/01/10 02:08:47;;;;;;;38.15;14.40;;;;;;;-14.60;100.00;99877.59;6111969;19;19906;-70
2024/01/10 02:10:47;;;;;;;44.95;15.48;;;;;;;-14.51;100.00;99871.19;6113712;19;20325;-70
2024/01/10 02:12:48;;;;;;;43.10;18.42;;;;;;;-14.40;100.00;99881.31;6111837;19;20014;-70
2024/01/10 02:14:48;;;;;;;35.85;16.10;;;;;;;-14.32;100.00;99875.09;6111182;19;20002;-70
2024/01/10 02:16:49;;;;;;;39.50;15.02;;;;;;;-14.33;100.00;99866.28;6111178;19;20021;-70
2024/01/10 02:18:50;;;;;;;41.58;15.95;;;;;;;-14.39;100.00;99871.53;6112710;19;20005;-70
2024/01/10 02:20:51;;;;;;;44.10;18.65;;;;;;;-14.41;100.00;99868.22;6111597;19;20009;-70
2024/01/10 02:22:52;;;;;;;52.67;17.38;;;;;;;-14.42;100.00;99866.56;6112443;19;20026;-70
2024/01/10 02:24:54;;;;;;;46.75;18.67;;;;;;;-14.42;100.00;99862.06;6111194;19;20784;-70
2024/01/10 02:26:54;;;;;;;;;;;;;;;-14.48;100.00;99858.38;6112995;19;20481;-70
2024/01/10 02:28:55;;;;;;;48.72;16.02;;;;;;;-14.52;100.00;99853.59;6111505;19;19921;-70
2024/01/10 02:30:57;;;;;;;39.67;16.45;;;;;;;-14.42;100.00;99855.94;6111855;19;20002;-70
2024/01/10 02:32:57;;;;;;;32.72;15.80;;;;;;;-14.43;100.00;99844.47;6110089;19;20022;-70
2024/01/10 02:34:58;;;;;;;37.67;15.52;;;;;;;-14.39;100.00;99851.09;6112176;19;20410;-70
2024/01/10 02:36:58;;;;;;;35.92;16.10;;;;;;;-14.37;100.00;99851.72;6109964;19;19999;-70
2024/01/10 02:38:58;;;;;;;36.13;15.05;;;;;;;-14.42;100.00;99846.13;6112049;19;20010;-70
2024/01/10 02:41:00;;;;;;;35.72;16.92;;;;;;;-14.33;100.00;99852.19;6111437;19;20344;-70
2024/01/10 02:43:00;;;;;;;51.03;19.63;;;;;;;-14.38;100.00;99850.09;6110747;19;20010;-70
2024/01/10 02:45:01;;;;;;;44.80;16.77;;;;;;;-14.43;100.00;99856.94;6110859;19;20006;-70
2024/01/10 02:47:01;;;;;;;42.28;18.55;;;;;;;-14.42;100.00;99855.94;6111163;19;20403;-70
2024/01/10 02:49:02;;;;;;;37.28;17.50;;;;;;;-14.43;100.00;99849.81;6100714;19;20019;-70
2024/01/10 02:51:02;;;;;;;43.70;20.15;;;;;;;-14.48;100.00;99852.19;6108782;19;20102;-70
2024/01/10 02:53:02;;;;;;;49.83;19.02;;;;;;;-14.44;100.00;99842.84;6108493;19;20111;-70
2024/01/10 02:55:03;;;;;;;48.53;16.88;;;;;;;-14.33;100.00;99846.84;6109260;19;20010;-70
2024/01/10 02:57:04;;;;;;;48.00;17.73;;;;;;;-14.32;100.00;99840.53;6109433;19;20006;-70
2024/01/10 02:59:04;;;;;;;45.90;18.08;;;;;;;-14.33;100.00;99830.91;6109725;19;20471;-70
2024/01/10 03:01:04;;;;;;;44.53;17.70;;;;;;;-14.33;100.00;99837.03;6109745;19;20002;-70
2024/01/10 03:03:04;;;;;;;41.70;15.23;;;;;;;-14.35;100.00;99844.38;6110264;19;20002;-70
2024/01/10 03:05:05;;;;;;;41.85;17.02;;;;;;;-14.36;100.00;99840.09;6110490;19;19998;-70
2024/01/10 03:07:05;;;;;;;39.05;16.80;;;;;;;-14.37;100.00;99834.97;6109920;19;20022;-70
2024/01/10 03:09:06;;;;;;;42.08;14.65;;;;;;;-14.28;100.00;99840.00;6110450;19;20017;-70
2024/01/10 03:11:06;;;;;;;31.30;13.95;;;;;;;-14.35;100.00;99832.94;6110589;19;20022;-70
2024/01/10 03:13:06;;;;;;;37.00;15.07;;;;;;;-14.35;100.00;99836.41;6109944;19;20340;-70
2024/01/10 03:15:07;;;;;;;32.38;14.18;;;;;;;-14.31;100.00;99832.41;6109993;19;20007;-70
2024/01/10 03:17:07;;;;;;;46.15;16.65;;;;;;;-14.32;100.00;99833.38;6107658;19;20079;-70
2024/01/10 03:19:07;;;;;;;33.97;16.23;;;;;;;-14.31;100.00;99832.41;6109760;19;20066;-70
2024/01/10 03:21:08;;;;;;;44.28;15.68;;;;;;;-14.31;100.00;99832.41;6109739;19;20459;-70
2024/01/10 03:23:08;;;;;;;33.10;13.40;;;;;;;-14.38;100.00;99833.31;6109134;19;20006;-70
2024/01/10 03:25:08;;;;;;;39.10;14.98;;;;;;;-14.39;100.00;99834.31;6110825;19;20013;-70
2024/01/10 03:27:09;;;;;;;37.83;14.95;;;;;;;-14.39;100.00;99832.50;6108027;19;20007;-70
2024/01/10 03:29:09;;;;;;;44.58;15.98;;;;;;;-14.42;100.00;99832.84;6109307;19;20011;-70
2024/01/10 03:31:11;;;;;;;35.30;13.85;;;;;;;-14.37;100.00;99829.63;6110202;19;20458;-70
2024/01/10 03:33:11;;;;;;;35.70;14.60;;;;;;;-14.38;100.00;99825.34;6107261;19;20018;-70
2024/01/10 03:35:11;;;;;;;31.20;15.10;;;;;;;-14.37;100.00;99830.47;6108785;19;20006;-70
2024/01/10 03:37:12;;;;;;;38.97;16.30;;;;;;;-14.44;100.00;99836.69;6108580;19;20025;-70
2024/01/10 03:39:12;;;;;;;41.08;16.83;;;;;;;-14.50;100.00;99836.44;6108510;19;20007;-70
2024/01/10 03:41:17;;;;;;;32.75;13.48;;;;;;;-14.44;100.00;99837.53;6109628;19;20083;-70
2024/01/10 03:43:17;;;;;;;29.80;14.00;;;;;;;-14.41;100.00;99836.31;6108178;19;19999;-70
2024/01/10 03:45:20;;;;;;;40.03;15.43;;;;;;;-14.45;100.00;99840.41;6110195;19;20077;-70
2024/01/10 03:47:20;;;;;;;30.35;13.63;;;;;;;-14.52;100.00;99833.16;6107182;19;20003;-70
2024/01/10 03:49:21;;;;;;;36.40;14.73;;;;;;;-14.50;100.00;99838.28;6097796;19;20376;-70
2024/01/10 03:51:21;;;;;;;36.42;15.63;;;;;;;-14.43;100.00;99831.19;6102161;19;20070;-71
2024/01/10 03:53:21;;;;;;;33.33;14.10;;;;;;;-14.48;100.00;99825.63;6100052;19;20082;-70
2024/01/10 03:55:22;;;;;;;37.53;14.40;;;;;;;-14.49;100.00;99827.47;6101921;19;20482;-70
2024/01/10 03:57:22;;;;;;;37.17;15.27;;;;;;;-14.50;100.00;99833.78;6101242;19;20010;-70
2024/01/10 03:59:22;;;;;;;36.38;14.30;;;;;;;-14.47;100.00;99837.94;6101291;19;20007;-70
2024/01/10 04:01:25;;;;;;;29.02;14.35;;;;;;;-14.43;100.00;99836.50;6099759;19;20007;-70
2024/01/10 04:03:26;;;;;;;33.90;14.23;;;;;;;-14.46;100.00;99834.25;6100850;19;20034;-70
2024/01/10 04:05:26;;;;;;;38.90;15.63;;;;;;;-14.45;100.00;99838.56;6101753;19;19999;-70
2024/01/10 04:07:27;;;;;;;37.80;17.50;;;;;;;-14.52;100.00;99833.16;6100836;19;20002;-71
2024/01/10 04:09:27;;;;;;;45.35;16.35;;;;;;;-14.51;100.00;99829.47;6101818;19;20003;-71
2024/01/10 04:11:28;;;;;;;39.60;17.20;;;;;;;-14.42;100.00;99838.16;6101164;19;20023;-70
2024/01/10 04:13:28;;;;;;;42.63;15.25;;;;;;;-14.43;100.00;99830.38;6100081;19;20010;-71
2024/01/10 04:15:28;;;;;;;39.47;15.50;;;;;;;-14.41;100.00;99828.34;6101490;19;20330;-71
2024/01/10 04:17:28;;;;;;;41.97;15.32;;;;;;;-14.40;100.00;99833.47;6100597;19;20851;-71
2024/01/10 04:19:29;;;;;;;34.65;14.82;;;;;;;-14.41;100.00;99833.66;6101050;19;20251;-71
2024/01/10 04:21:29;;;;;;;39.05;14.63;;;;;;;-14.41;100.00;99834.47;6101512;19;20040;-70
2024/01/10 04:23:30;;;;;;;34.25;14.45;;;;;;;-14.43;100.00;99833.84;6099705;19;20080;-70
2024/01/10 04:25:31;;;;;;;31.77;14.30;;;;;;;-14.38;100.00;99834.13;6101244;19;20364;-70
2024/01/10 04:27:31;;;;;;;36.53;15.50;;;;;;;-14.37;100.00;99829.63;6099978;19;20002;-70
2024/01/10 04:29:31;;;;;;;39.88;15.52;;;;;;;-14.33;100.00;99829.06;6101255;19;20002;-70
2024/01/10 04:31:32;;;;;;;37.28;15.35;;;;;;;-14.38;100.00;99831.47;6097266;19;20390;-70
2024/01/10 04:33:32;;;;;;;38.88;13.80;;;;;;;-14.36;100.00;99834.78;6098739;19;20007;-70
2024/01/10 04:35:32;;;;;;;36.15;14.77;;;;;;;-14.36;100.00;99825.97;6101246;19;20788;-70
2024/01/10 04:37:32;;;;;;;35.28;16.23;;;;;;;-14.34;100.00;99826.59;6099185;19;20017;-70
2024/01/10 04:39:37;;;;;;;35.60;13.98;;;;;;;-14.39;100.00;99832.50;6100692;19;20021;-70
2024/01/10 04:41:39;;;;;;;38.55;15.90;;;;;;;-14.36;100.00;99821.47;6099456;19;20006;-70
2024/01/10 04:43:40;;;;;;;42.17;16.33;;;;;;;-14.33;100.00;99823.75;6097955;19;20011;-70
2024/01/10 04:45:40;;;;;;;35.47;14.80;;;;;;;-14.36;100.00;99818.81;6098349;19;20002;-70
2024/01/10 04:47:40;;;;;;;42.70;14.90;;;;;;;-14.31;100.00;99820.91;6099071;19;20597;-70
2024/01/10 04:49:41;;;;;;;33.78;15.18;;;;;;;-14.35;100.00;99814.31;6105748;19;20436;-70
2024/01/10 04:51:41;;;;;;;38.35;13.88;;;;;;;-14.40;100.00;99809.53;6108536;19;20006;-70
2024/01/10 04:53:41;;;;;;;28.33;13.77;;;;;;;-14.41;100.00;99807.06;6106172;19;20004;-70
2024/01/10 04:55:42;;;;;;;33.55;15.13;;;;;;;-14.45;100.00;99811.97;6106685;19;20009;-70
2024/01/10 04:57:42;;;;;;;39.92;16.30;;;;;;;-14.50;100.00;99806.38;6107541;19;20466;-70
2024/01/10 04:59:43;;;;;;;32.70;13.85;;;;;;;-14.46;100.00;99815.66;6107586;19;20009;-70
2024/01/10 05:01:43;;;;;;;32.97;15.43;;;;;;;-14.36;100.00;99816.16;6106626;19;20062;-70
2024/01/10 05:03:43;;;;;;;38.47;15.93;;;;;;;-14.29;100.00;99813.59;6107133;19;20434;-70
2024/01/10 05:05:44;;;;;;;34.08;14.30;;;;;;;-14.32;100.00;99820.09;6107137;19;20357;-70
2024/01/10 05:07:44;;;;;;;35.22;14.70;;;;;;;-14.39;100.00;99805.91;6106564;19;20323;-70
2024/01/10 05:09:44;;;;;;;36.90;15.88;;;;;;;-14.36;100.00;99810.84;6106410;19;20028;-70
2024/01/10 05:11:50;;;;;;;36.42;14.82;;;;;;;-14.30;100.00;99811.94;6107431;19;20002;-70
2024/01/10 05:13:51;;;;;;;40.38;13.95;;;;;;;-14.34;100.00;99813.31;6105318;19;20007;-70
2024/01/10 05:15:52;;;;;;;37.70;14.00;;;;;;;-14.27;100.00;99799.09;6107087;19;20005;-70
2024/01/10 05:17:52;;;;;;;34.33;16.35;;;;;;;-14.15;100.00;99811.91;6106093;19;20102;-70
2024/01/10 05:19:53;;;;;;;37.67;15.45;;;;;;;-14.12;100.00;99816.88;6107968;19;20003;-70
2024/01/10 05:21:54;;;;;;;38.00;15.50;;;;;;;-14.10;100.00;99814.84;6106017;19;20003;-70
2024/01/10 05:23:54;;;;;;;45.53;16.15;;;;;;;-14.11;100.00;99806.03;6105685;19;20010;-70
2024/01/10 05:25:55;;;;;;;44.78;17.23;;;;;;;-14.12;100.00;99809.72;6100097;19;19995;-70
2024/01/10 05:27:55;;;;;;;44.88;17.95;;;;;;;-14.08;100.00;99810.97;6099168;19;20337;-70
2024/01/10 05:29:56;;;;;;;35.00;14.98;;;;;;;-14.06;100.00;99806.31;6098631;19;20010;-70
2024/01/10 05:31:56;;;;;;;36.42;14.77;;;;;;;-14.04;100.00;99809.59;6099036;19;20002;-70
2024/01/10 05:33:56;;;;;;;42.75;16.95;;;;;;;-14.07;100.00;99798.50;6098534;19;20029;-70
2024/01/10 05:35:58;;;;;;;38.95;16.45;;;;;;;-14.09;100.00;99806.66;6104619;19;20002;-70
2024/01/10 05:37:58;;;;;;;45.47;19.13;;;;;;;-14.14;100.00;99802.94;6106518;19;20348;-70
2024/01/10 05:39:58;;;;;;;39.08;17.02;;;;;;;-14.15;100.00;99806.59;6109532;19;19999;-70
2024/01/10 05:41:59;;;;;;;34.83;15.95;;;;;;;-14.18;100.00;99803.28;6111980;19;20002;-70
2024/01/10 05:43:59;;;;;;;36.67;15.65;;;;;;;-14.11;100.00;99806.03;6112030;19;20393;-70
2024/01/10 05:45:59;;;;;;;44.38;17.25;;;;;;;-14.07;100.00;99809.97;6110352;19;20459;-70
2024/01/10 05:48:00;;;;;;;40.28;17.00;;;;;;;-14.06;100.00;99801.00;6111345;19;20427;-70
2024/01/10 05:50:00;;;;;;;42.70;16.45;;;;;;;-14.03;100.00;99810.44;6111821;19;20002;-70
2024/01/10 05:52:01;;;;;;;40.17;14.90;;;;;;;-14.08;100.00;99807.50;6112380;19;20022;-70
2024/01/10 05:54:01;;;;;;;36.67;16.58;;;;;;;-14.10;100.00;99815.66;6110571;19;20009;-71
2024/01/10 05:56:02;;;;;;;39.15;17.30;;;;;;;-14.13;100.00;99810.72;6112253;19;20006;-70
2024/01/10 05:58:02;;;;;;;32.92;15.48;;;;;;;-14.15;100.00;99809.25;6110774;19;19999;-71
2024/01/10 06:00:04;;;;;;;41.70;15.63;;;;;;;-14.15;100.00;99807.41;6112678;19;20014;-71
2024/01/10 06:02:05;;;;;;;;;;;;;;;-14.14;100.00;99801.09;6110833;19;19999;-70
2024/01/10 06:04:05;;;;;;;30.40;13.43;;;;;;;-14.17;100.00;99799.63;6110142;19;19923;-70
2024/01/10 06:06:06;;;;;;;32.65;14.07;;;;;;;-14.19;100.00;99792.84;6113128;19;19999;-70
2024/01/10 06:08:06;;;;;;;36.65;15.32;;;;;;;-14.15;100.00;99799.44;6112402;19;20013;-70
2024/01/10 06:10:07;;;;;;;42.53;14.73;;;;;;;-14.18;100.00;99803.28;6111439;19;19999;-70
2024/01/10 06:12:08;;;;;;;35.55;14.05;;;;;;;-14.06;100.00;99801.00;6111266;19;20003;-70
2024/01/10 06:14:08;;;;;;;37.38;15.55;;;;;;;-13.96;100.00;99795.38;6110567;19;20029;-71
2024/01/10 06:16:09;;;;;;;40.00;14.63;;;;;;;-13.96;100.00;99801.50;6111940;19;20005;-70
2024/01/10 06:18:09;;;;;;;38.97;16.58;;;;;;;-14.00;100.00;99804.72;6111213;19;19994;-70
2024/01/10 06:20:10;;;;;;;39.70;16.42;;;;;;;-13.95;100.00;99795.19;6111016;19;20009;-70
2024/01/10 06:22:11;;;;;;;41.97;15.40;;;;;;;-14.03;100.00;99791.81;6111395;19;20006;-70
2024/01/10 06:24:11;;;;;;;34.60;15.60;;;;;;;-14.06;100.00;99800.16;6109962;19;20003;-70
2024/01/10 06:26:12;;;;;;;42.30;15.52;;;;;;;-14.08;100.00;99791.53;6111842;19;20003;-70
2024/01/10 06:28:12;;;;;;;47.42;17.50;;;;;;;-14.07;100.00;99795.84;6111113;19;20083;-70
2024/01/10 06:30:12;;;;;;;39.80;16.25;;;;;;;-14.05;100.00;99796.50;6111570;19;20006;-70
2024/01/10 06:32:14;;;;;;;49.90;18.60;;;;;;;-13.99;100.00;99803.72;6111329;19;20010;-70
2024/01/10 06:34:14;;;;;;;40.70;16.67;;;;;;;-13.99;100.00;99806.38;6110308;19;20496;-70
2024/01/10 06:36:14;;;;;;;37.78;15.85;;;;;;;-14.08;100.00;99803.00;6111112;19;20082;-70
2024/01/10 06:38:16;;;;;;;37.15;15.38;;;;;;;-14.11;100.00;99806.03;6109328;19;20011;-70
2024/01/10 06:40:17;;;;;;;36.70;16.60;;;;;;;-14.11;100.00;99792.75;6111556;19;20122;-70
2024/01/10 06:42:17;;;;;;;34.03;15.93;;;;;;;-14.18;100.00;99797.16;6110907;19;20022;-70
2024/01/10 06:44:17;;;;;;;38.72;15.63;;;;;;;-14.17;100.00;99799.63;6108914;19;20007;-70
2024/01/10 06:46:18;;;;;;;42.92;17.08;;;;;;;-14.22;100.00;99804.69;6110500;19;20010;-70
2024/01/10 06:48:18;;;;;;;43.67;17.02;;;;;;;-14.28;100.00;99808.09;6109867;19;20396;-70
2024/01/10 06:50:20;;;;;;;32.05;15.23;;;;;;;-14.29;100.00;99801.13;6111108;19;20320;-70
2024/01/10 06:52:20;;;;;;;40.08;14.48;;;;;;;-14.30;100.00;99818.09;6108548;19;20010;-70
2024/01/10 06:54:20;;;;;;;33.05;14.40;;;;;;;-14.35;100.00;99807.16;6109490;19;20154;-70
2024/01/10 06:56:21;;;;;;;40.72;15.00;;;;;;;-14.32;100.00;99806.78;6110111;19;20023;-70
2024/01/10 06:58:21;;;;;;;36.47;14.75;;;;;;;-14.31;100.00;99796.97;6109384;19;20039;-70
2024/01/10 07:00:22;;;;;;;34.65;14.63;;;;;;;-14.39;100.00;99808.56;6111011;19;20077;-71
2024/01/10 07:02:23;;;;;;;38.15;16.23;;;;;;;-14.45;100.00;99816.47;6110766;19;20025;-70
2024/01/10 07:04:23;;;;;;;32.13;13.52;;;;;;;-14.50;100.00;99812.53;6109129;19;20029;-70
2024/01/10 07:06:24;;;;;;;40.17;16.52;;;;;;;-14.50;100.00;99811.69;6110337;19;20007;-70
2024/01/10 07:08:25;;;;;;;27.60;11.82;;;;;;;-14.38;100.00;99810.22;6111024;19;20003;-70
2024/01/10 07:10:27;;;;;;;33.40;15.27;;;;;;;-14.38;100.00;99810.22;6110766;19;20007;-70
2024/01/10 07:12:27;;;;;;;34.08;13.60;;;;;;;-14.35;100.00;99822.31;6108537;19;20011;-70
2024/01/10 07:14:28;;;;;;;44.22;16.73;;;;;;;-14.36;100.00;99812.69;6109302;19;20102;-70
2024/01/10 07:16:28;;;;;;;41.42;17.55;;;;;;;-14.33;100.00;99818.44;6110830;19;20007;-70
2024/01/10 07:18:30;;;;;;;33.13;14.85;;;;;;;-14.19;100.00;99817.59;6109418;19;20874;-70
2024/01/10 07:20:30;;;;;;;52.70;17.98;;;;;;;-14.25;100.00;99812.19;6109358;19;20034;-70
2024/01/10 07:22:30;;;;;;;37.70;17.42;;;;;;;-14.23;100.00;99826.97;6110576;19;20002;-70
2024/01/10 07:24:31;;;;;;;35.13;17.20;;;;;;;-14.17;100.00;99823.56;6108280;19;20362;-70
2024/01/10 07:26:31;;;;;;;44.13;17.38;;;;;;;-14.15;100.00;99812.72;6109259;19;20078;-70
2024/01/10 07:28:32;;;;;;;50.00;16.92;;;;;;;-14.07;100.00;99820.59;6109957;19;20078;-70
2024/01/10 07:30:32;;;;;;;35.20;17.08;;;;;;;-14.08;100.00;99828.75;6109617;19;20038;-70
2024/01/10 07:32:33;;;;;;;39.90;16.42;;;;;;;-14.12;100.00;99815.03;6109417;19;20018;-70
2024/01/10 07:34:33;;;;;;;37.30;15.77;;;;;;;-14.07;100.00;99833.06;6108171;19;20002;-70
2024/01/10 07:36:42;;;;;;;40.83;14.63;;;;;;;-14.07;100.00;99825.91;6109862;19;20400;-70
2024/01/10 07:38:42;;;;;;;34.05;15.10;;;;;;;-14.11;100.00;99829.97;6110711;19;20073;-70
2024/01/10 07:40:42;;;;;;;31.05;15.55;;;;;;;-14.08;100.00;99829.59;6108918;19;20013;-70
2024/01/10 07:42:43;;;;;;;39.83;17.30;;;;;;;-14.07;100.00;99827.75;6108900;19;20357;-70
2024/01/10 07:44:43;;;;;;;36.15;16.52;;;;;;;-14.03;100.00;99827.22;6108882;19;20035;-70
2024/01/10 07:46:43;;;;;;;45.30;17.48;;;;;;;-14.03;100.00;99832.53;6110115;19;20011;-70
2024/01/10 07:48:44;;;;;;;38.08;16.85;;;;;;;-13.94;100.00;99830.59;6100983;19;20011;-70
2024/01/10 07:50:44;;;;;;;43.50;16.83;;;;;;;-13.95;100.00;99831.59;6110353;19;20014;-69
2024/01/10 07:52:46;;;;;;;40.70;16.33;;;;;;;-13.93;100.00;99832.22;6109402;19;20475;-70
2024/01/10 07:54:46;;;;;;;41.17;18.53;;;;;;;-13.84;100.00;99836.41;6109150;19;20011;-70
2024/01/10 07:56:46;;;;;;;45.95;17.02;;;;;;;-13.80;100.00;99831.56;6108484;19;20238;-70
2024/01/10 07:58:48;;;;;;;39.30;17.65;;;;;;;-13.80;100.00;99843.03;6110058;19;20007;-70
2024/01/10 08:00:48;;;;;;;43.30;17.42;;;;;;;-13.79;100.00;99838.53;6110008;19;20542;-70
2024/01/10 08:02:50;;;;;;;47.63;19.73;;;;;;;-13.79;100.00;99833.22;6106176;19;20006;-70
2024/01/10 08:04:51;;;;;;;45.58;17.45;;;;;;;-13.81;100.00;99833.41;6107309;19;20010;-70
2024/01/10 08:06:52;;;;;;;47.70;18.92;;;;;;;-13.75;100.00;99829.97;6109858;19;20010;-70
2024/01/10 08:08:52;;;;;;;36.33;16.63;;;;;;;-13.68;100.00;99840.69;6109613;19;20081;-69
2024/01/10 08:10:53;;;;;;;49.55;17.02;;;;;;;-13.66;100.00;99834.16;6109188;19;20034;-69
2024/01/10 08:12:53;;;;;;;37.30;15.85;;;;;;;-13.61;100.00;99841.59;6110669;19;20014;-69
2024/01/10 08:14:53;;;;;;;40.63;15.07;;;;;;;-13.51;100.00;99833.28;6108713;19;20011;-70
2024/01/10 08:16:54;;;;;;;39.03;15.95;;;;;;;-13.46;100.00;99838.88;6105000;19;20011;-70
2024/01/10 08:18:54;;;;;;;34.90;16.55;;;;;;;-13.42;100.00;99842.81;6109530;19;20267;-70
2024/01/10 08:20:55;;;;;;;37.85;18.02;;;;;;;-13.41;100.00;99834.63;6109710;19;20011;-70
2024/01/10 08:22:55;;;;;;;36.40;16.65;;;;;;;-13.43;100.00;99838.50;6108969;19;20023;-70
2024/01/10 08:24:56;;;;;;;40.40;15.38;;;;;;;-13.45;100.00;99841.34;6107723;19;20527;-69
2024/01/10 08:26:56;;;;;;;44.28;18.50;;;;;;;-13.44;100.00;99837.66;6107652;19;20078;-70
2024/01/10 08:28:56;;;;;;;35.75;15.13;;;;;;;-13.40;100.00;99838.94;6109077;19;20327;-70
2024/01/10 08:30:58;;;;;;;35.00;13.57;;;;;;;-13.43;100.00;99833.16;6108912;19;20070;-70
2024/01/10 08:32:59;;;;;;;43.85;16.13;;;;;;;-13.40;100.00;99846.13;6108560;19;20017;-70
2024/01/10 08:34:59;;;;;;;46.30;18.00;;;;;;;-13.38;100.00;99841.41;6106350;19;20002;-69
2024/01/10 08:37:00;;;;;;;45.63;18.52;;;;;;;-13.33;100.00;99833.66;6108780;19;20416;-70
2024/01/10 08:39:00;;;;;;;52.30;20.85;;;;;;;-13.30;100.00;99837.81;6109647;19;20011;-69
2024/01/10 08:41:01;;;;;;;48.65;19.35;;;;;;;-13.25;100.00;99836.19;6107884;19;20010;-70
2024/01/10 08:43:02;;;;;;;45.38;16.65;;;;;;;-13.18;100.00;99836.22;6108244;19;20010;-70
2024/01/10 08:45:02;;;;;;;53.38;19.27;;;;;;;-13.15;100.00;99830.53;6109191;19;20340;-70
2024/01/10 08:47:03;;;;;;;48.95;19.92;;;;;;;-13.07;100.00;99843.72;6108819;19;21230;-70
2024/01/10 08:49:03;;;;;;;62.28;19.67;;;;;;;-13.06;100.00;99840.03;6103216;19;20011;-70
2024/01/10 08:51:04;;;;;;;50.05;19.65;;;;;;;-13.01;100.00;99847.44;6101615;19;20011;-70
2024/01/10 08:53:05;;;;;;;45.47;17.20;;;;;;;-12.96;100.00;99848.53;6099322;19;20066;-70
2024/01/10 08:55:06;;;;;;;40.10;17.92;;;;;;;-12.93;100.00;99844.66;6100717;19;20392;-70
2024/01/10 08:57:06;;;;;;;37.90;17.75;;;;;;;-12.88;100.00;99847.56;6100522;19;20007;-70
2024/01/10 08:59:07;;;;;;;48.97;19.30;;;;;;;-12.85;100.00;99845.31;6100786;19;20010;-70
2024/01/10 09:01:08;;;;;;;52.38;18.80;;;;;;;-12.84;100.00;99856.81;6101490;19;20029;-70